Time;durP1;ratioP1;P1;durP2;ratioP2;P2;SDS_P1;SDS_P2;PMS_P1;PMS_P2;Temp;Humidity;BMP_temperature;BMP_pressure;BME280_temperature;BME280_humidity;BME280_pressure;Samples;Min_cycle;Max_cycle;Signal;HPM_P1;HPM_P2
2022/11/29 00:01:35;;;;;;;21.55;14.60;;;7.80;99.90;;;7.24;100.00;97322.56;5039107;28;20045;-72
2022/11/29 00:04:03;;;;;;;15.45;12.35;;;7.80;99.90;;;7.18;100.00;97317.59;5034125;28;20052;-72
2022/11/29 00:06:33;;;;;;;17.95;12.20;;;7.80;99.90;;;7.28;100.00;97325.88;5039569;28;20049;-72
2022/11/29 00:09:06;;;;;;;16.98;11.55;;;7.80;99.90;;;7.27;100.00;97326.75;5037966;28;20059;-71
2022/11/29 00:14:25;;;;;;;15.18;10.57;;;7.70;99.90;;;7.26;100.00;97325.94;5041306;28;21327;-72
2022/11/29 00:17:00;;;;;;;18.77;11.95;;;7.80;99.90;;;7.26;100.00;97323.34;5052700;28;20053;-72
2022/11/29 00:19:29;;;;;;;16.80;10.80;;;7.80;99.90;;;7.28;100.00;97329.31;5040492;28;20048;-72
2022/11/29 00:21:58;;;;;;;13.55;10.55;;;7.80;99.90;;;7.27;100.00;97329.34;5041882;28;20053;-72
2022/11/29 00:24:27;;;;;;;13.55;9.93;;;7.80;99.90;;;7.27;100.00;97330.19;5037183;28;20049;-72
2022/11/29 00:26:53;;;;;;;16.63;11.77;;;7.80;99.90;;;7.29;100.00;97325.81;5040485;28;20049;-72
2022/11/29 00:29:20;;;;;;;22.27;14.15;;;7.80;99.90;;;7.03;100.00;97323.28;5039490;28;20465;-72
2022/11/29 00:31:47;;;;;;;21.40;14.50;;;7.80;99.90;;;7.10;100.00;97327.34;5041461;28;20475;-72
2022/11/29 00:34:14;;;;;;;27.25;15.98;;;7.70;99.90;;;6.93;100.00;97329.59;5039240;28;20045;-72
2022/11/29 00:36:41;;;;;;;21.17;14.65;;;7.70;99.90;;;7.00;100.00;97331.97;5038090;28;20581;-72
2022/11/29 00:39:10;;;;;;;20.45;13.98;;;7.70;99.90;;;7.02;100.00;97337.88;5040676;28;20052;-72
2022/11/29 00:41:38;;;;;;;22.13;13.85;;;7.70;99.90;;;7.04;100.00;97338.69;5037878;28;20084;-73
2022/11/29 00:44:05;;;;;;;17.95;12.57;;;7.70;99.90;;;7.03;100.00;97331.84;5053445;28;20064;-72
2022/11/29 00:46:32;;;;;;;20.63;14.18;;;7.80;99.90;;;7.02;100.00;97330.16;5040883;28;20144;-72
2022/11/29 00:48:59;;;;;;;17.80;10.65;;;7.70;99.90;;;7.14;100.00;97336.66;5037369;28;20162;-71
2022/11/29 00:51:27;;;;;;;14.25;9.85;;;7.80;99.90;;;7.11;100.00;97334.16;5038318;28;20675;-72
2022/11/29 00:53:54;;;;;;;15.52;10.60;;;7.80;99.90;;;7.18;100.00;97339.97;5041678;28;20041;-72
2022/11/29 00:56:20;;;;;;;17.67;11.45;;;7.80;99.90;;;7.09;100.00;97341.97;5038505;28;20048;-72
2022/11/29 00:58:48;;;;;;;13.13;10.32;;;7.70;99.90;;;7.07;100.00;97343.75;5040940;28;20048;-72
2022/11/29 01:01:15;;;;;;;16.63;11.45;;;7.70;99.90;;;6.95;100.00;97343.31;5041466;28;20045;-72
2022/11/29 01:03:42;;;;;;;14.07;10.30;;;7.70;99.90;;;7.06;100.00;97334.31;5040014;28;20080;-72
2022/11/29 01:06:14;;;;;;;18.75;11.52;;;7.70;99.90;;;7.01;100.00;97333.63;5039269;28;20139;-73
2022/11/29 01:08:42;;;;;;;15.48;9.88;;;7.70;99.90;;;7.04;100.00;97338.69;5055086;28;20136;-72
2022/11/29 01:11:20;;;;;;;13.73;9.68;;;7.70;99.90;;;6.94;100.00;97341.63;5025336;28;20049;-73
2022/11/29 01:13:49;;;;;;;11.93;8.60;;;7.70;99.90;;;7.04;100.00;97343.84;5040270;28;20064;-73
2022/11/29 01:16:16;;;;;;;16.70;10.70;;;7.70;99.90;;;7.05;100.00;97353.28;5040127;28;20208;-72
2022/11/29 01:18:44;;;;;;;13.20;8.50;;;7.70;99.90;;;7.11;100.00;97347.91;5040514;28;20457;-73
2022/11/29 01:21:15;;;;;;;15.98;9.70;;;7.70;99.90;;;7.07;100.00;97348.06;5043039;28;20072;-71
2022/11/29 01:23:43;;;;;;;12.85;8.52;;;7.80;99.90;;;7.11;100.00;97344.50;5058669;28;20071;-72
2022/11/29 01:26:14;;;;;;;13.10;8.40;;;7.80;99.90;;;7.11;100.00;97350.50;5046647;28;20045;-72
2022/11/29 01:28:42;;;;;;;10.27;7.50;;;7.80;99.90;;;7.13;100.00;97347.88;5048368;28;20281;-72
2022/11/29 01:31:13;;;;;;;11.65;8.00;;;7.80;99.90;;;7.20;100.00;97346.78;5050980;28;20119;-72
2022/11/29 01:33:40;;;;;;;14.50;9.15;;;7.90;99.90;;;7.18;100.00;97351.13;5045533;28;20118;-73
2022/11/29 01:36:09;;;;;;;11.82;8.07;;;7.90;99.90;;;7.26;100.00;97348.31;5063174;28;20043;-72
2022/11/29 01:38:36;;;;;;;12.88;9.57;;;7.90;99.90;;;7.20;100.00;97351.09;5052007;28;20053;-72
2022/11/29 01:41:17;;;;;;;11.68;7.85;;;7.90;99.90;;;7.13;100.00;97356.44;5048595;28;20049;-73
2022/11/29 01:43:58;;;;;;;10.38;7.18;;;7.90;99.90;;;7.05;100.00;97353.28;5045930;28;20411;-73
2022/11/29 01:46:28;;;;;;;12.52;8.68;;;7.80;99.90;;;7.09;100.00;97360.06;5047081;28;20533;-72
2022/11/29 01:49:03;;;;;;;8.95;6.88;;;7.80;99.90;;;6.94;100.00;97355.38;5047632;28;20137;-73
2022/11/29 01:51:31;;;;;;;11.15;7.57;;;7.70;99.90;;;6.89;100.00;97365.84;5046276;28;20425;-72
2022/11/29 01:53:59;;;;;;;12.18;8.43;;;7.60;99.90;;;6.87;100.00;97366.78;5048429;28;20442;-73
2022/11/29 01:56:28;;;;;;;9.98;7.22;;;7.60;99.90;;;7.00;100.00;97364.63;5042367;28;20049;-73
2022/11/29 01:58:55;;;;;;;10.50;7.43;;;7.60;99.90;;;7.05;100.00;97360.19;5045156;28;20048;-72
2022/11/29 02:01:22;;;;;;;10.07;7.28;;;7.70;99.90;;;7.08;100.00;97352.34;5046416;28;20049;-73
2022/11/29 02:03:49;;;;;;;11.73;7.82;;;7.70;99.90;;;7.03;100.00;97359.41;5042435;28;20067;-72
2022/11/29 02:06:17;;;;;;;10.30;7.40;;;7.70;99.90;;;7.11;100.00;97355.66;5046199;28;20061;-73
2022/11/29 02:08:44;;;;;;;11.07;7.03;;;7.70;99.90;;;7.20;100.00;97356.25;5047120;28;20049;-73
2022/11/29 02:11:33;;;;;;;14.07;8.38;;;7.70;99.90;;;7.06;100.00;97351.53;5042800;28;20041;-72
2022/11/29 02:14:32;;;;;;;11.98;8.00;;;7.80;99.90;;;7.00;100.00;97349.16;5042673;28;20068;-71
2022/11/29 02:17:42;;;;;;;12.25;7.85;;;7.70;99.90;;;6.98;100.00;97346.66;5046209;28;20044;-72
2022/11/29 02:20:15;;;;;;;10.73;7.25;;;7.70;99.90;;;7.02;100.00;97348.22;5046014;28;20057;-71
2022/11/29 02:23:16;;;;;;;9.07;6.55;;;7.70;99.90;;;6.85;100.00;97351.34;5043540;28;20455;-72
2022/11/29 02:26:06;;;;;;;9.00;6.18;;;7.70;99.90;;;7.01;100.00;97354.28;5045930;28;20826;-72
2022/11/29 02:29:03;;;;;;;6.25;4.72;;;7.60;99.90;;;7.01;100.00;97353.44;5041325;28;20145;-72
2022/11/29 02:31:58;;;;;;;7.22;5.22;;;7.70;99.90;;;6.88;100.00;97351.22;5023620;28;20060;-72
2022/11/29 02:34:52;;;;;;;7.82;5.45;;;7.70;99.90;;;6.77;100.00;97360.19;5046797;28;20045;-73
2022/11/29 02:37:56;;;;;;;9.70;6.18;;;7.70;99.90;;;6.81;100.00;97354.91;5045790;28;20049;-72
2022/11/29 02:40:49;;;;;;;10.95;7.55;;;7.60;99.90;;;6.76;100.00;97359.34;5021552;28;20044;-73
2022/11/29 02:43:30;;;;;;;7.63;5.80;;;7.50;99.90;;;6.75;100.00;97362.84;5044392;28;20052;-73
2022/11/29 02:46:29;;;;;;;10.10;6.97;;;7.50;99.90;;;6.79;100.00;97367.00;5047875;28;20053;-72
2022/11/29 02:49:43;;;;;;;14.70;8.80;;;7.50;99.90;;;6.83;100.00;97363.44;5045268;28;20053;-72
2022/11/29 02:52:27;;;;;;;9.80;5.95;;;7.50;99.90;;;6.72;100.00;97372.41;5044385;28;20048;-73
2022/11/29 02:55:01;;;;;;;12.32;8.43;;;7.50;99.90;;;6.70;100.00;97373.31;5058916;28;20136;-72
2022/11/29 02:57:36;;;;;;;10.13;7.00;;;7.50;99.90;;;6.76;100.00;97376.59;5045514;28;20057;-72
2022/11/29 03:00:14;;;;;;;14.65;9.13;;;7.50;99.90;;;6.82;100.00;97373.78;5059139;28;20055;-70
2022/11/29 03:02:50;;;;;;;12.90;7.93;;;7.50;99.90;;;6.72;100.00;97382.72;5027048;28;20110;-72
2022/11/29 03:05:43;;;;;;;14.23;9.55;;;7.50;99.90;;;6.70;100.00;97373.31;5040899;28;20056;-72
2022/11/29 03:08:16;;;;;;;9.73;6.88;;;7.50;99.90;;;6.67;100.00;97375.13;5041287;28;20513;-72
2022/11/29 03:11:30;;;;;;;13.48;8.75;;;7.50;99.90;;;6.66;100.00;97382.03;5044530;28;20067;-72
2022/11/29 03:14:48;;;;;;;16.55;10.60;;;7.40;99.90;;;6.62;100.00;97389.91;5038585;28;20049;-72
2022/11/29 03:17:50;;;;;;;12.82;9.10;;;7.40;99.90;;;6.62;100.00;97395.06;5022966;28;20045;-72
2022/11/29 03:20:36;;;;;;;19.65;12.80;;;7.40;99.90;;;6.60;100.00;97396.84;5011603;28;20048;-73
2022/11/29 03:23:19;;;;;;;16.42;10.55;;;7.40;99.90;;;6.62;100.00;97393.31;5045713;28;20156;-72
2022/11/29 03:26:01;;;;;;;24.30;12.40;;;7.40;99.90;;;6.68;100.00;97387.97;5042298;28;20052;-72
2022/11/29 03:28:36;;;;;;;15.48;10.27;;;7.40;99.90;;;6.65;100.00;97390.63;5059012;28;20124;-72
2022/11/29 03:31:22;;;;;;;16.75;10.27;;;7.40;99.90;;;6.66;100.00;97386.31;5043681;28;20044;-71
2022/11/29 03:34:12;;;;;;;13.90;10.15;;;7.40;99.90;;;6.66;100.00;97386.31;5043361;28;20049;-72
2022/11/29 03:36:57;;;;;;;16.65;10.98;;;7.40;99.90;;;6.78;100.00;97390.28;5047378;28;20037;-71
2022/11/29 03:39:54;;;;;;;17.80;10.80;;;7.50;99.90;;;6.73;100.00;97392.13;5062088;28;20075;-71
2022/11/29 03:42:51;;;;;;;38.42;13.32;;;7.50;99.90;;;6.67;100.00;97396.59;5046062;28;20520;-70
2022/11/29 03:45:29;;;;;;;24.58;13.70;;;7.40;99.90;;;6.67;100.00;97395.75;5045318;28;20136;-72
2022/11/29 03:48:12;;;;;;;24.30;13.82;;;7.40;99.90;;;6.62;100.00;97397.63;5044347;28;20663;-72
2022/11/29 03:50:48;;;;;;;;;;;7.40;99.90;;;6.55;100.00;97399.53;5061553;28;20056;-72
2022/11/29 03:53:44;;;;;;;22.98;13.55;;;7.30;99.90;;;6.51;100.00;97397.94;5040695;28;19932;-72
2022/11/29 03:56:28;;;;;;;14.02;9.52;;;7.30;99.90;;;6.48;100.00;97400.63;5037431;28;20037;-72
2022/11/29 03:59:25;;;;;;;14.68;9.85;;;7.30;99.90;;;6.61;100.00;97401.09;5044641;28;20557;-72
2022/11/29 04:02:10;;;;;;;16.48;10.90;;;7.30;99.90;;;6.59;100.00;97402.88;5045822;28;20140;-71
2022/11/29 04:05:19;;;;;;;19.75;13.10;;;7.30;99.90;;;6.61;100.00;97403.66;5044158;28;20120;-72
2022/11/29 04:08:07;;;;;;;24.73;14.70;;;7.30;99.90;;;6.49;100.00;97395.41;5043801;28;20046;-71
2022/11/29 04:11:12;;;;;;;16.90;11.75;;;7.20;99.90;;;6.49;100.00;97397.13;5044481;28;20052;-70
2022/11/29 04:13:51;;;;;;;25.20;14.82;;;7.20;99.90;;;6.63;100.00;97395.00;5039938;28;20507;-71
2022/11/29 04:17:14;;;;;;;23.23;13.35;;;7.20;99.90;;;6.66;100.00;97397.50;5044552;28;20052;-71
2022/11/29 04:20:37;;;;;;;24.60;15.35;;;7.10;99.90;;;6.58;100.00;97399.44;5044104;28;20061;-71
2022/11/29 04:23:36;;;;;;;19.15;11.65;;;7.10;99.90;;;6.55;100.00;97396.97;5042227;28;20071;-72
2022/11/29 04:26:32;;;;;;;;;;;7.10;99.90;;;6.44;100.00;97407.59;5042890;28;20523;-71
2022/11/29 04:29:38;;;;;;;13.48;8.27;;;7.10;99.90;;;6.41;100.00;97404.22;5041548;28;19927;-71
2022/11/29 04:32:11;;;;;;;12.32;8.95;;;7.10;99.90;;;6.43;100.00;97405.91;5044963;28;20045;-71
2022/11/29 04:35:15;;;;;;;17.90;10.65;;;7.00;99.90;;;6.40;100.00;97412.88;5043255;28;20052;-72
2022/11/29 04:38:00;;;;;;;15.45;10.48;;;7.00;99.90;;;6.47;100.00;97406.66;5044673;28;20067;-71
2022/11/29 04:41:09;;;;;;;21.05;11.30;;;7.00;99.90;;;6.59;100.00;97413.19;5043826;28;20114;-71
2022/11/29 04:44:10;;;;;;;11.55;8.38;;;7.10;99.90;;;6.67;100.00;97421.53;5042116;28;20041;-72
2022/11/29 04:47:18;;;;;;;21.88;11.18;;;7.10;99.90;;;6.75;100.00;97419.59;5041561;28;20732;-71
2022/11/29 04:50:13;;;;;;;15.18;9.38;;;7.20;99.90;;;6.73;100.00;97423.09;5004078;28;20049;-71
2022/11/29 04:53:13;;;;;;;14.50;9.43;;;7.30;99.90;;;6.70;100.00;97427.47;5043434;28;20057;-71
2022/11/29 04:56:26;;;;;;;14.45;9.65;;;7.40;99.90;;;6.72;100.00;97427.41;5047048;28;20056;-71
2022/11/29 04:59:15;;;;;;;13.57;7.80;;;7.40;99.90;;;6.70;100.00;97429.19;5045438;28;20057;-71
2022/11/29 05:02:23;;;;;;;14.32;9.75;;;7.30;99.90;;;6.67;100.00;97439.59;5047829;28;20044;-71
2022/11/29 05:05:03;;;;;;;20.58;12.90;;;7.30;99.90;;;6.54;100.00;97428.78;5062752;28;20053;-71
2022/11/29 05:07:57;;;;;;;15.18;10.43;;;7.20;99.90;;;6.60;100.00;97435.50;5046086;28;20130;-71
2022/11/29 05:10:55;;;;;;;11.73;7.60;;;7.20;99.90;;;6.65;100.00;97441.38;5049300;28;20049;-72
2022/11/29 05:13:28;;;;;;;15.55;10.20;;;7.30;99.90;;;6.75;100.00;97439.38;5047976;28;20052;-72
2022/11/29 05:16:13;;;;;;;14.15;8.65;;;7.30;99.90;;;6.70;100.00;97439.50;5045283;28;20135;-72
2022/11/29 05:19:37;;;;;;;14.13;8.68;;;7.30;99.90;;;6.69;100.00;97445.56;5061213;28;20128;-71
2022/11/29 05:22:24;;;;;;;16.38;9.63;;;7.30;99.90;;;6.70;100.00;97448.09;5012872;28;20049;-71
2022/11/29 05:25:36;;;;;;;10.95;7.78;;;7.30;99.90;;;6.53;100.00;97457.22;4992312;28;20050;-71
2022/11/29 05:28:25;;;;;;;20.25;11.23;;;7.30;99.90;;;6.53;100.00;97464.94;5044718;28;20048;-72
2022/11/29 05:31:41;;;;;;;15.65;7.95;;;7.20;99.90;;;6.46;100.00;97472.84;5043255;28;20075;-70
2022/11/29 05:34:42;;;;;;;13.98;7.93;;;7.10;99.90;;;6.42;100.00;97470.41;5045917;28;20057;-71
2022/11/29 05:37:54;;;;;;;16.25;8.77;;;7.10;99.90;;;6.49;100.00;97475.31;5046021;28;20572;-71
2022/11/29 05:40:56;;;;;;;15.30;9.52;;;7.10;99.90;;;6.52;100.00;97474.41;5037557;28;20046;-71
2022/11/29 05:43:59;;;;;;;13.88;8.90;;;7.10;99.90;;;6.46;100.00;97478.00;5047833;28;20395;-71
2022/11/29 05:46:56;;;;;;;17.50;8.55;;;7.10;99.90;;;6.46;100.00;97487.47;5064850;28;20793;-71
2022/11/29 05:49:51;;;;;;;15.70;8.88;;;7.10;99.90;;;6.45;100.00;97494.38;5046941;28;20048;-71
2022/11/29 05:52:32;;;;;;;10.43;6.45;;;7.10;99.90;;;6.54;100.00;97493.25;5047002;28;20053;-72
2022/11/29 05:55:16;;;;;;;20.67;10.35;;;7.10;99.90;;;6.52;100.00;97499.34;5045009;28;20056;-71
2022/11/29 05:58:07;;;;;;;17.33;10.40;;;7.10;99.90;;;6.41;100.00;97494.47;5047716;28;20049;-71
2022/11/29 06:00:53;;;;;;;19.25;8.82;;;7.10;99.90;;;6.38;100.00;97503.13;5041917;28;20566;-70
2022/11/29 06:03:50;;;;;;;12.70;7.65;;;7.00;99.90;;;6.37;100.00;97500.63;5061379;28;20041;-71
2022/11/29 06:06:45;;;;;;;17.25;9.65;;;7.00;99.90;;;6.32;100.00;97508.47;5045771;28;20045;-71
2022/11/29 06:09:29;;;;;;;12.52;7.97;;;7.00;99.90;;;6.37;100.00;97505.78;5043938;28;20072;-70
2022/11/29 06:12:14;;;;;;;21.00;10.02;;;7.00;99.90;;;6.37;100.00;97506.63;5023901;28;20061;-71
2022/11/29 06:15:37;;;;;;;13.38;7.65;;;7.00;99.90;;;6.40;100.00;97511.69;5056689;28;20049;-71
2022/11/29 06:18:45;;;;;;;11.60;6.47;;;7.00;99.90;;;6.42;100.00;97520.22;5045913;28;20053;-71
2022/11/29 06:21:48;;;;;;;11.15;7.47;;;7.10;99.90;;;6.36;100.00;97517.78;5023996;28;20048;-71
2022/11/29 06:24:35;;;;;;;22.00;11.02;;;7.10;99.90;;;6.38;100.00;97518.59;5046904;28;20494;-71
2022/11/29 06:27:59;;;;;;;22.70;11.82;;;7.10;99.90;;;6.30;100.00;97522.31;5044850;28;20063;-71
2022/11/29 06:31:02;;;;;;;16.83;9.40;;;7.00;99.90;;;6.31;100.00;97529.97;5014251;28;20143;-69
2022/11/29 06:34:09;;;;;;;20.13;10.55;;;7.00;99.90;;;6.39;100.00;97516.91;5047558;28;20040;-70
2022/11/29 06:36:55;;;;;;;17.90;10.52;;;7.00;99.90;;;6.50;100.00;97525.19;5046048;28;20189;-70
2022/11/29 06:39:23;;;;;;;19.90;10.27;;;7.10;99.90;;;6.53;100.00;97530.25;5037170;28;20048;-70
2022/11/29 06:41:50;;;;;;;17.27;9.38;;;7.20;99.90;;;6.51;100.00;97516.56;5047634;28;20056;-71
2022/11/29 06:44:17;;;;;;;19.15;11.88;;;7.20;99.90;;;6.54;100.00;97524.19;5045773;28;20083;-70
2022/11/29 06:47:17;;;;;;;12.02;8.45;;;7.20;99.90;;;6.51;100.00;97523.44;5043495;28;20057;-71
2022/11/29 06:49:53;;;;;;;19.25;12.68;;;7.20;99.90;;;6.40;100.00;97518.56;5042747;28;20062;-70
2022/11/29 06:52:54;;;;;;;18.70;10.63;;;7.00;99.90;;;6.44;100.00;97523.59;5044132;28;20048;-70
2022/11/29 06:55:30;;;;;;;18.08;10.85;;;7.00;99.90;;;6.40;100.00;97527.16;5036490;28;20038;-70
2022/11/29 06:58:18;;;;;;;21.65;11.15;;;7.00;99.90;;;6.28;100.00;97524.91;5046015;28;20049;-71
2022/11/29 07:01:24;;;;;;;15.00;8.80;;;7.00;99.90;;;6.38;100.00;97530.66;5048028;28;20402;-70
2022/11/29 07:04:23;;;;;;;15.75;9.20;;;7.00;99.90;;;6.39;100.00;97528.03;5046603;28;20048;-71
2022/11/29 07:06:50;;;;;;;27.73;10.95;;;7.00;99.90;;;6.45;100.00;97540.78;5025524;28;20442;-71
2022/11/29 07:09:20;;;;;;;18.92;9.95;;;7.00;99.90;;;6.42;100.00;97532.28;5045132;28;20041;-70
2022/11/29 07:11:48;;;;;;;16.10;10.07;;;7.00;99.90;;;6.41;100.00;97543.47;5044876;28;20053;-71
2022/11/29 07:14:15;;;;;;;21.35;10.90;;;7.00;99.90;;;6.39;100.00;97542.69;5045964;28;20048;-70
2022/11/29 07:17:14;;;;;;;20.42;12.40;;;7.00;99.90;;;6.39;100.00;97540.09;5047631;28;20064;-70
2022/11/29 07:20:01;;;;;;;24.10;12.38;;;7.00;99.90;;;6.28;100.00;97543.78;5061011;28;20049;-70
2022/11/29 07:23:02;;;;;;;16.40;9.55;;;7.00;99.90;;;6.39;100.00;97551.25;5042417;28;20664;-69
2022/11/29 07:25:53;;;;;;;13.95;9.52;;;7.00;99.90;;;6.43;100.00;97550.28;5045355;28;20048;-71
2022/11/29 07:28:54;;;;;;;17.42;10.35;;;7.10;99.90;;;6.37;100.00;97547.88;5061348;28;20156;-70
2022/11/29 07:31:53;;;;;;;18.20;11.57;;;7.10;99.90;;;6.47;100.00;97557.03;5047120;28;20060;-70
2022/11/29 07:34:50;;;;;;;15.73;10.20;;;7.10;99.90;;;6.51;100.00;97559.56;5046739;28;20056;-70
2022/11/29 07:37:57;;;;;;;14.65;9.48;;;7.20;99.90;;;6.51;100.00;97565.53;5047024;28;20045;-70
2022/11/29 07:41:04;;;;;;;17.73;10.38;;;7.30;99.90;;;6.64;100.00;97572.06;5045415;28;20510;-70
2022/11/29 07:43:55;;;;;;;16.13;10.35;;;7.30;99.90;;;6.54;100.00;97572.34;5043240;28;20136;-69
2022/11/29 07:46:24;;;;;;;21.02;11.88;;;7.30;99.90;;;6.57;100.00;97567.97;5043950;28;20743;-70
2022/11/29 07:48:51;;;;;;;21.73;12.63;;;7.30;99.90;;;6.60;100.00;97569.63;5040456;28;20071;-70
2022/11/29 07:51:18;;;;;;;16.55;11.63;;;7.30;99.90;;;6.66;100.00;97569.44;5045986;28;20063;-71
2022/11/29 07:53:45;;;;;;;16.45;9.35;;;7.30;99.90;;;6.72;100.00;97571.84;5044025;28;20052;-70
2022/11/29 07:56:11;;;;;;;16.60;10.57;;;7.40;99.90;;;6.80;100.00;97563.94;5041835;28;20502;-69
2022/11/29 07:58:38;;;;;;;16.98;11.57;;;7.40;99.90;;;6.72;100.00;97565.84;5044049;28;20052;-71
2022/11/29 08:01:05;;;;;;;22.23;12.57;;;7.50;99.90;;;6.68;100.00;97567.66;5044917;28;20368;-70
2022/11/29 08:03:34;;;;;;;26.02;14.77;;;7.40;99.90;;;6.68;100.00;97571.13;5040981;28;20048;-70
2022/11/29 08:06:02;;;;;;;18.40;11.73;;;7.40;99.90;;;6.69;100.00;97565.06;5044089;28;20048;-70
2022/11/29 08:08:29;;;;;;;15.57;10.95;;;7.40;99.90;;;6.71;100.00;97575.34;5044323;28;20104;-71
2022/11/29 08:10:56;;;;;;;16.55;10.88;;;7.50;99.90;;;6.72;100.00;97571.84;5045347;28;20406;-70
2022/11/29 08:13:22;;;;;;;18.70;12.30;;;7.50;99.90;;;6.71;100.00;97577.91;5041176;28;20136;-70
2022/11/29 08:15:50;;;;;;;15.95;11.10;;;7.50;99.90;;;6.68;100.00;97570.25;5042592;28;20049;-70
2022/11/29 08:18:17;;;;;;;19.60;10.95;;;7.40;99.90;;;6.66;100.00;97577.16;5043229;28;20510;-71
2022/11/29 08:20:45;;;;;;;20.88;11.35;;;7.40;99.90;;;6.70;100.00;97574.50;5042588;28;20075;-70
2022/11/29 08:23:13;;;;;;;14.88;8.88;;;7.50;99.90;;;6.75;100.00;97570.91;5045147;28;20056;-70
2022/11/29 08:25:40;;;;;;;22.38;10.38;;;7.50;99.90;;;6.78;100.00;97576.84;5045829;28;20121;-69
2022/11/29 08:28:08;;;;;;;15.90;10.23;;;7.60;99.90;;;6.76;100.00;97586.38;5060661;28;20068;-70
2022/11/29 08:30:35;;;;;;;20.17;10.02;;;7.60;99.90;;;6.79;100.00;97580.28;5043538;28;20048;-71
2022/11/29 08:33:02;;;;;;;13.82;8.45;;;7.60;99.90;;;6.90;100.00;97593.72;5045605;28;20506;-70
2022/11/29 08:35:29;;;;;;;16.52;8.60;;;7.70;99.90;;;6.91;100.00;97588.53;5045698;28;20076;-68
2022/11/29 08:37:56;;;;;;;17.65;8.82;;;7.70;99.90;;;6.98;100.00;97596.09;5046120;28;20045;-70
2022/11/29 08:40:23;;;;;;;14.70;8.77;;;7.80;99.90;;;7.06;100.00;97599.31;5045602;28;20495;-70
2022/11/29 08:42:50;;;;;;;15.88;8.38;;;7.90;99.90;;;7.13;100.00;97601.66;5042544;28;20053;-69
2022/11/29 08:45:17;;;;;;;16.20;7.72;;;8.00;99.90;;;7.23;100.00;97610.00;5042781;28;20041;-70
2022/11/29 08:47:44;;;;;;;14.57;7.15;;;8.10;99.90;;;7.21;100.00;97605.78;5043748;28;20059;-69
2022/11/29 08:50:17;;;;;;;18.65;8.57;;;8.00;99.90;;;7.29;100.00;97612.41;5041215;28;20044;-70
2022/11/29 08:55:41;;;;;;;17.33;6.82;;;8.20;99.90;;;7.33;100.00;97623.50;5042023;28;20045;-70
2022/11/29 08:58:12;;;;;;;15.13;6.78;;;8.20;99.90;;;7.38;100.00;97623.38;5041407;28;20051;-69
2022/11/29 09:00:42;;;;;;;16.02;5.82;;;8.20;99.90;;;7.46;100.00;97621.41;5039790;28;20179;-70
2022/11/29 09:05:54;;;;;;;14.75;6.50;;;8.40;99.90;;;7.50;100.00;97615.25;5043800;28;20501;-69
2022/11/29 09:08:21;;;;;;;17.33;6.90;;;8.30;99.90;;;7.47;100.00;97623.94;5044349;28;20049;-70
2022/11/29 09:10:48;;;;;;;13.30;6.55;;;8.40;99.90;;;7.50;100.00;97623.00;5042822;28;20053;-70
2022/11/29 09:13:16;;;;;;;17.30;6.68;;;8.40;99.90;;;7.52;100.00;97631.53;5043758;28;20468;-70
2022/11/29 09:15:43;;;;;;;16.52;6.25;;;8.50;99.90;;;7.51;100.00;97632.44;5043715;28;20045;-71
2022/11/29 09:18:10;;;;;;;14.13;5.25;;;8.40;99.90;;;7.66;100.00;97632.00;5042178;28;20045;-70
2022/11/29 09:20:41;;;;;;;9.98;5.30;;;8.70;99.90;;;7.79;100.00;97629.88;5044690;28;20048;-70
2022/11/29 09:23:09;;;;;;;12.30;5.68;;;8.80;99.90;;;7.69;100.00;97636.22;5056672;28;20490;-70
2022/11/29 09:25:36;;;;;;;13.90;5.53;;;8.90;99.90;;;7.72;100.00;97642.13;5056138;28;20477;-70
2022/11/29 09:28:03;;;;;;;14.20;6.20;;;8.90;99.90;;;7.51;100.00;97642.78;5044954;28;20084;-69
2022/11/29 09:30:30;;;;;;;16.25;6.25;;;8.90;99.90;;;7.66;100.00;97639.75;5039653;28;20049;-70
2022/11/29 09:33:03;;;;;;;20.15;5.95;;;8.90;99.90;;;7.71;100.00;97643.03;5045864;28;20059;-70
2022/11/29 09:35:31;;;;;;;16.50;5.90;;;8.90;99.90;;;7.79;100.00;97647.13;5044338;28;20433;-71
2022/11/29 09:37:59;;;;;;;11.77;5.45;;;8.90;99.90;;;7.83;100.00;97646.97;5042020;28;20053;-69
2022/11/29 09:40:40;;;;;;;13.77;5.53;;;8.90;99.90;;;7.71;100.00;97647.38;5043896;28;20401;-70
2022/11/29 09:43:32;;;;;;;23.38;6.10;;;9.00;99.90;;;7.87;100.00;97655.50;5060125;28;20045;-71
2022/11/29 09:46:16;;;;;;;12.10;4.90;;;9.00;99.90;;;7.81;100.00;97658.25;5044587;28;20055;-70
2022/11/29 09:49:08;;;;;;;20.58;6.07;;;9.00;99.90;;;7.84;100.00;97655.56;5058041;28;20598;-70
2022/11/29 09:51:41;;;;;;;15.65;6.28;;;;;;;7.88;100.00;97664.94;5039886;28;20566;-70
2022/11/29 09:54:37;;;;;;;14.00;6.28;;;9.10;99.90;;;7.91;100.00;97660.53;5060001;28;20560;-71
2022/11/29 09:57:05;;;;;;;17.42;7.38;;;9.10;99.90;;;7.93;100.00;97660.47;5046088;28;20045;-70
2022/11/29 09:59:46;;;;;;;18.60;6.55;;;9.10;99.90;;;8.08;100.00;97667.75;5040745;28;20049;-70
2022/11/29 10:02:19;;;;;;;13.73;6.28;;;9.20;99.90;;;7.95;100.00;97671.59;5042340;28;20440;-70
2022/11/29 10:05:13;;;;;;;15.85;5.80;;;9.20;99.90;;;8.13;100.00;97670.19;5039680;28;20345;-70
2022/11/29 10:07:49;;;;;;;16.13;7.72;;;9.20;99.90;;;8.26;100.00;97673.25;5045843;28;20152;-70
2022/11/29 10:10:22;;;;;;;16.77;7.38;;;9.30;99.90;;;8.13;100.00;97671.03;5041247;28;20486;-71
2022/11/29 10:12:54;;;;;;;;;;;9.30;99.90;;;8.20;100.00;97676.84;5042863;28;20056;-70
2022/11/29 10:15:45;;;;;;;21.52;9.52;;;9.30;99.90;;;8.31;100.00;97672.19;5054937;28;20033;-70
2022/11/29 10:18:37;;;;;;;16.08;9.02;;;9.30;99.90;;;8.24;100.00;97673.28;5044254;28;20037;-70
2022/11/29 10:21:13;;;;;;;19.10;8.82;;;9.40;99.90;;;8.45;100.00;97676.13;5038140;28;20049;-70
2022/11/29 10:23:58;;;;;;;17.58;9.73;;;9.50;99.90;;;8.24;100.00;97682.78;5045208;28;20045;-70
2022/11/29 10:26:26;;;;;;;18.95;8.57;;;9.50;99.90;;;8.21;100.00;97677.69;5057676;28;20040;-70
2022/11/29 10:29:00;;;;;;;20.35;8.98;;;9.50;99.90;;;8.38;100.00;97678.00;5026843;28;20638;-70
2022/11/29 10:31:41;;;;;;;19.65;8.90;;;9.50;99.90;;;8.69;100.00;97671.84;5040709;28;20651;-68
2022/11/29 10:34:30;;;;;;;19.60;8.45;;;9.60;99.90;;;8.68;100.00;97675.34;5044375;28;20111;-69
2022/11/29 10:37:00;;;;;;;15.85;8.00;;;9.70;99.90;;;8.84;100.00;97673.94;5042852;28;20382;-70
2022/11/29 10:39:43;;;;;;;21.55;8.10;;;9.90;99.90;;;8.78;100.00;97675.00;5042373;28;20062;-70
2022/11/29 10:45:27;;;;;;;17.10;7.88;;;10.00;99.90;;;8.73;100.00;97674.28;5044053;28;20042;-70
2022/11/29 10:48:02;;;;;;;17.27;7.00;;;10.00;99.90;;;8.83;100.00;97671.41;5043576;28;20048;-69
2022/11/29 10:50:33;;;;;;;16.42;6.05;;;10.00;99.90;;;8.72;100.00;97677.78;5041922;28;20048;-70
2022/11/29 10:53:11;;;;;;;16.70;6.22;;;9.90;99.90;;;8.75;100.00;97676.84;5057487;28;20049;-70
2022/11/29 10:56:05;;;;;;;16.00;6.07;;;9.80;99.90;;;8.57;100.00;97673.13;5041810;28;20051;-70
2022/11/29 10:58:32;;;;;;;18.98;6.07;;;9.70;99.90;;;8.44;100.00;97671.81;5039247;28;20117;-70
2022/11/29 11:01:05;;;;;;;16.77;6.28;;;9.70;99.90;;;8.42;100.00;97674.47;5038711;28;20077;-70
2022/11/29 11:03:33;;;;;;;18.48;6.45;;;9.50;99.90;;;8.40;100.00;97671.09;5041869;28;20049;-68
2022/11/29 11:06:17;;;;;;;16.15;5.82;;;9.60;99.90;;;8.43;100.00;97683.91;5043822;28;20044;-71
2022/11/29 11:09:15;;;;;;;21.05;6.68;;;9.50;99.90;;;8.40;100.00;97681.44;5042538;28;20156;-70
2022/11/29 11:11:54;;;;;;;19.10;6.95;;;9.50;99.90;;;8.37;100.00;97682.34;5043834;28;20473;-70
2022/11/29 11:14:27;;;;;;;16.50;6.45;;;9.60;99.90;;;8.45;100.00;97676.94;5039188;28;20055;-69
2022/11/29 11:16:54;;;;;;;;;;;9.70;99.90;;;8.52;100.00;97678.44;5040649;28;20052;-71
2022/11/29 11:19:31;;;;;;;20.15;6.28;;;9.80;99.90;;;8.66;100.00;97680.56;5045096;28;20550;-70
2022/11/29 11:22:01;;;;;;;16.30;5.75;;;9.90;99.90;;;8.69;100.00;97677.03;5042502;28;20049;-70
2022/11/29 11:24:39;;;;;;;17.00;5.75;;;10.00;99.90;;;8.76;100.00;97686.31;5055829;28;20057;-71
2022/11/29 11:27:07;;;;;;;17.27;5.60;;;10.00;99.90;;;8.53;100.00;97684.44;5043088;28;20055;-71
2022/11/29 11:29:41;;;;;;;16.40;6.47;;;9.90;99.90;;;8.43;100.00;97689.09;5038023;28;20045;-71